X  Close Metar Aviation Weather Data     EHAM Amsterdam Airport Schiphol
Temperature
15°C Temperature
14°C Dewpoint
94% Humidity



Wind
5 M/S
12 MPH
19 KM/H
10 KTS



280°
W
Current Conditions

Partly Cloudy Partly Cloudy
Pressure 1008.81 (hPa) - 29.79 (inHg)
Visibility 6 (mile) - 9.7 (km)
Airport
Airport-code EHAM

Location: Amsterdam Airport Schiphol
Distance: 14 (km)

Metar:
EHAM 130655Z 28010KT 9999 FEW008 FEW018CB SCT026 15/14 Q1009 TEMPO 6000 SHRA BKN020

Time: 13-07-2024 08:55 CEST